sensor_id;sensor_type;location;lat;lon;timestamp;temperature;humidity
35804;DHT22;21924;51.934;7.414;2023-08-01T00:00:20;15.30;99.90
35804;DHT22;21924;51.934;7.414;2023-08-01T00:03:04;15.30;99.90
35804;DHT22;21924;51.934;7.414;2023-08-01T00:05:49;15.30;99.90
35804;DHT22;21924;51.934;7.414;2023-08-01T00:08:33;15.40;99.90
35804;DHT22;21924;51.934;7.414;2023-08-01T00:11:17;15.30;99.90
35804;DHT22;21924;51.934;7.414;2023-08-01T00:14:05;15.40;99.90
35804;DHT22;21924;51.934;7.414;2023-08-01T00:17:20;15.40;99.90
35804;DHT22;21924;51.934;7.414;2023-08-01T00:20:13;15.40;99.90
35804;DHT22;21924;51.934;7.414;2023-08-01T00:22:59;15.40;99.90
35804;DHT22;21924;51.934;7.414;2023-08-01T00:25:43;15.40;99.90
35804;DHT22;21924;51.934;7.414;2023-08-01T00:28:29;15.40;99.90
35804;DHT22;21924;51.934;7.414;2023-08-01T00:31:15;15.30;99.90
35804;DHT22;21924;51.934;7.414;2023-08-01T00:34:00;15.50;99.90
35804;DHT22;21924;51.934;7.414;2023-08-01T00:36:53;15.50;99.90
35804;DHT22;21924;51.934;7.414;2023-08-01T00:47:35;15.50;99.90
35804;DHT22;21924;51.934;7.414;2023-08-01T00:50:41;15.50;99.90
35804;DHT22;21924;51.934;7.414;2023-08-01T00:54:04;15.50;99.90
35804;DHT22;21924;51.934;7.414;2023-08-01T00:56:48;15.50;99.90
35804;DHT22;21924;51.934;7.414;2023-08-01T00:59:33;15.60;99.90
35804;DHT22;21924;51.934;7.414;2023-08-01T01:02:19;15.40;99.90
35804;DHT22;21924;51.934;7.414;2023-08-01T01:05:07;15.60;99.90
35804;DHT22;21924;51.934;7.414;2023-08-01T01:07:54;15.50;99.90
35804;DHT22;21924;51.934;7.414;2023-08-01T01:10:39;15.50;99.90
35804;DHT22;21924;51.934;7.414;2023-08-01T01:13:23;15.50;99.90
35804;DHT22;21924;51.934;7.414;2023-08-01T01:16:08;15.60;99.90
35804;DHT22;21924;51.934;7.414;2023-08-01T01:18:51;15.60;99.90
35804;DHT22;21924;51.934;7.414;2023-08-01T01:21:38;15.60;99.90
35804;DHT22;21924;51.934;7.414;2023-08-01T01:24:23;15.50;99.90
35804;DHT22;21924;51.934;7.414;2023-08-01T01:27:09;15.60;99.90
35804;DHT22;21924;51.934;7.414;2023-08-01T01:37:15;15.60;99.90
35804;DHT22;21924;51.934;7.414;2023-08-01T01:40:01;15.50;99.90
35804;DHT22;21924;51.934;7.414;2023-08-01T01:42:45;15.50;99.90
35804;DHT22;21924;51.934;7.414;2023-08-01T01:45:30;15.50;99.90
35804;DHT22;21924;51.934;7.414;2023-08-01T01:48:14;15.60;99.90
35804;DHT22;21924;51.934;7.414;2023-08-01T01:51:00;15.50;99.90
35804;DHT22;21924;51.934;7.414;2023-08-01T01:53:46;15.50;99.90
35804;DHT22;21924;51.934;7.414;2023-08-01T01:56:30;15.60;99.90
35804;DHT22;21924;51.934;7.414;2023-08-01T01:59:15;15.60;99.90
35804;DHT22;21924;51.934;7.414;2023-08-01T02:02:00;15.50;99.90
35804;DHT22;21924;51.934;7.414;2023-08-01T02:08:25;15.50;99.90
35804;DHT22;21924;51.934;7.414;2023-08-01T02:11:09;15.60;99.90
35804;DHT22;21924;51.934;7.414;2023-08-01T02:13:54;15.60;99.90
35804;DHT22;21924;51.934;7.414;2023-08-01T02:16:39;15.50;99.90
35804;DHT22;21924;51.934;7.414;2023-08-01T02:19:23;15.60;99.90
35804;DHT22;21924;51.934;7.414;2023-08-01T02:22:08;15.50;99.90
35804;DHT22;21924;51.934;7.414;2023-08-01T02:28:34;15.60;99.90
35804;DHT22;21924;51.934;7.414;2023-08-01T02:31:19;15.60;99.90
35804;DHT22;21924;51.934;7.414;2023-08-01T02:34:04;15.60;99.90
35804;DHT22;21924;51.934;7.414;2023-08-01T02:36:49;15.70;99.90
35804;DHT22;21924;51.934;7.414;2023-08-01T02:39:35;15.60;99.90
35804;DHT22;21924;51.934;7.414;2023-08-01T02:42:19;15.60;99.90
35804;DHT22;21924;51.934;7.414;2023-08-01T02:56:08;15.60;99.90
35804;DHT22;21924;51.934;7.414;2023-08-01T02:58:55;15.50;99.90
35804;DHT22;21924;51.934;7.414;2023-08-01T03:02:02;15.50;99.90
35804;DHT22;21924;51.934;7.414;2023-08-01T03:04:47;15.50;99.90
35804;DHT22;21924;51.934;7.414;2023-08-01T03:07:32;15.50;99.90
35804;DHT22;21924;51.934;7.414;2023-08-01T03:10:16;15.40;99.90
35804;DHT22;21924;51.934;7.414;2023-08-01T03:13:01;15.30;99.90
35804;DHT22;21924;51.934;7.414;2023-08-01T03:15:46;15.40;99.90
35804;DHT22;21924;51.934;7.414;2023-08-01T03:18:30;15.40;99.90
35804;DHT22;21924;51.934;7.414;2023-08-01T03:21:14;15.30;99.90
35804;DHT22;21924;51.934;7.414;2023-08-01T03:24:00;15.30;99.90
35804;DHT22;21924;51.934;7.414;2023-08-01T03:26:44;15.30;99.90
35804;DHT22;21924;51.934;7.414;2023-08-01T03:29:29;15.30;99.90
35804;DHT22;21924;51.934;7.414;2023-08-01T03:32:13;15.30;99.90
35804;DHT22;21924;51.934;7.414;2023-08-01T03:34:58;15.20;99.90
35804;DHT22;21924;51.934;7.414;2023-08-01T03:37:43;15.20;99.90
35804;DHT22;21924;51.934;7.414;2023-08-01T03:40:28;15.20;99.90
35804;DHT22;21924;51.934;7.414;2023-08-01T03:43:13;15.20;99.90
35804;DHT22;21924;51.934;7.414;2023-08-01T03:45:57;15.30;99.90
35804;DHT22;21924;51.934;7.414;2023-08-01T03:48:41;15.30;99.90
35804;DHT22;21924;51.934;7.414;2023-08-01T03:51:27;15.20;99.90
35804;DHT22;21924;51.934;7.414;2023-08-01T03:54:11;15.20;99.90
35804;DHT22;21924;51.934;7.414;2023-08-01T03:56:56;15.20;99.90
35804;DHT22;21924;51.934;7.414;2023-08-01T03:59:40;15.20;99.90
35804;DHT22;21924;51.934;7.414;2023-08-01T04:02:24;15.20;99.90
35804;DHT22;21924;51.934;7.414;2023-08-01T04:05:09;15.20;99.90
35804;DHT22;21924;51.934;7.414;2023-08-01T04:07:53;15.20;99.90
35804;DHT22;21924;51.934;7.414;2023-08-01T04:10:39;15.20;99.90
35804;DHT22;21924;51.934;7.414;2023-08-01T04:13:23;15.20;99.90
35804;DHT22;21924;51.934;7.414;2023-08-01T04:16:09;15.10;99.90
35804;DHT22;21924;51.934;7.414;2023-08-01T04:18:53;15.10;99.90
35804;DHT22;21924;51.934;7.414;2023-08-01T04:21:37;15.10;99.90
35804;DHT22;21924;51.934;7.414;2023-08-01T04:24:21;15.10;99.90
35804;DHT22;21924;51.934;7.414;2023-08-01T04:27:09;15.10;99.90
35804;DHT22;21924;51.934;7.414;2023-08-01T04:29:55;15.10;99.90
35804;DHT22;21924;51.934;7.414;2023-08-01T04:32:39;15.20;99.90
35804;DHT22;21924;51.934;7.414;2023-08-01T04:35:23;15.10;99.90
35804;DHT22;21924;51.934;7.414;2023-08-01T04:38:08;15.10;99.90
35804;DHT22;21924;51.934;7.414;2023-08-01T04:40:53;15.10;99.90
35804;DHT22;21924;51.934;7.414;2023-08-01T04:43:37;15.10;99.90
35804;DHT22;21924;51.934;7.414;2023-08-01T04:46:23;15.10;99.90
35804;DHT22;21924;51.934;7.414;2023-08-01T04:49:07;15.10;99.90
35804;DHT22;21924;51.934;7.414;2023-08-01T04:51:52;15.10;99.90
35804;DHT22;21924;51.934;7.414;2023-08-01T04:54:38;15.10;99.90
35804;DHT22;21924;51.934;7.414;2023-08-01T04:57:22;15.10;99.90
35804;DHT22;21924;51.934;7.414;2023-08-01T05:00:06;15.10;99.90
35804;DHT22;21924;51.934;7.414;2023-08-01T05:02:51;15.10;99.90
35804;DHT22;21924;51.934;7.414;2023-08-01T05:05:35;15.10;99.90
35804;DHT22;21924;51.934;7.414;2023-08-01T05:08:21;15.20;99.90
35804;DHT22;21924;51.934;7.414;2023-08-01T05:11:06;15.20;99.90
35804;DHT22;21924;51.934;7.414;2023-08-01T05:13:50;15.20;99.90
35804;DHT22;21924;51.934;7.414;2023-08-01T05:16:35;15.30;99.90
35804;DHT22;21924;51.934;7.414;2023-08-01T05:19:19;15.20;99.90
35804;DHT22;21924;51.934;7.414;2023-08-01T05:22:06;15.20;99.90
35804;DHT22;21924;51.934;7.414;2023-08-01T05:24:51;15.20;99.90
35804;DHT22;21924;51.934;7.414;2023-08-01T05:27:35;15.10;99.90
35804;DHT22;21924;51.934;7.414;2023-08-01T05:30:20;15.20;99.90
35804;DHT22;21924;51.934;7.414;2023-08-01T05:33:04;15.20;99.90
35804;DHT22;21924;51.934;7.414;2023-08-01T05:35:49;15.20;99.90
35804;DHT22;21924;51.934;7.414;2023-08-01T05:38:34;15.20;99.90
35804;DHT22;21924;51.934;7.414;2023-08-01T05:41:19;15.40;99.90
35804;DHT22;21924;51.934;7.414;2023-08-01T05:44:04;15.40;99.90
35804;DHT22;21924;51.934;7.414;2023-08-01T05:54:32;15.50;99.90
35804;DHT22;21924;51.934;7.414;2023-08-01T05:57:16;15.40;99.90
35804;DHT22;21924;51.934;7.414;2023-08-01T06:00:04;15.50;99.90
35804;DHT22;21924;51.934;7.414;2023-08-01T06:02:48;15.50;99.90
35804;DHT22;21924;51.934;7.414;2023-08-01T06:05:33;15.50;99.90
35804;DHT22;21924;51.934;7.414;2023-08-01T06:08:18;15.50;99.90
35804;DHT22;21924;51.934;7.414;2023-08-01T06:15:04;15.50;99.90
35804;DHT22;21924;51.934;7.414;2023-08-01T06:18:10;15.60;99.90
35804;DHT22;21924;51.934;7.414;2023-08-01T06:20:57;15.50;99.90
35804;DHT22;21924;51.934;7.414;2023-08-01T06:23:41;15.50;99.90
35804;DHT22;21924;51.934;7.414;2023-08-01T06:26:28;15.60;99.90
35804;DHT22;21924;51.934;7.414;2023-08-01T06:29:13;15.60;99.90
35804;DHT22;21924;51.934;7.414;2023-08-01T06:31:57;15.60;99.90
35804;DHT22;21924;51.934;7.414;2023-08-01T06:34:41;15.60;99.90
35804;DHT22;21924;51.934;7.414;2023-08-01T06:37:29;15.70;99.90
35804;DHT22;21924;51.934;7.414;2023-08-01T06:40:22;15.70;99.90
35804;DHT22;21924;51.934;7.414;2023-08-01T06:43:09;15.80;99.90
35804;DHT22;21924;51.934;7.414;2023-08-01T06:45:53;15.80;99.90
35804;DHT22;21924;51.934;7.414;2023-08-01T06:48:39;15.80;99.90
35804;DHT22;21924;51.934;7.414;2023-08-01T06:51:23;15.90;99.90
35804;DHT22;21924;51.934;7.414;2023-08-01T06:54:21;16.00;99.90
35804;DHT22;21924;51.934;7.414;2023-08-01T06:57:06;16.10;99.90
35804;DHT22;21924;51.934;7.414;2023-08-01T06:59:54;16.20;99.90
35804;DHT22;21924;51.934;7.414;2023-08-01T07:02:52;16.50;99.90
35804;DHT22;21924;51.934;7.414;2023-08-01T07:05:37;16.70;99.90
35804;DHT22;21924;51.934;7.414;2023-08-01T07:08:21;16.80;99.90
35804;DHT22;21924;51.934;7.414;2023-08-01T07:11:07;16.90;99.90
35804;DHT22;21924;51.934;7.414;2023-08-01T07:13:50;16.80;99.90
35804;DHT22;21924;51.934;7.414;2023-08-01T07:16:35;17.10;99.90
35804;DHT22;21924;51.934;7.414;2023-08-01T07:19:19;17.20;99.90
35804;DHT22;21924;51.934;7.414;2023-08-01T07:22:03;17.50;99.90
35804;DHT22;21924;51.934;7.414;2023-08-01T07:24:53;17.40;99.90
35804;DHT22;21924;51.934;7.414;2023-08-01T07:27:37;17.20;99.90
35804;DHT22;21924;51.934;7.414;2023-08-01T07:30:22;17.00;99.90
35804;DHT22;21924;51.934;7.414;2023-08-01T07:33:07;17.00;99.90
35804;DHT22;21924;51.934;7.414;2023-08-01T07:35:51;17.20;99.90
35804;DHT22;21924;51.934;7.414;2023-08-01T07:38:35;17.30;99.90
35804;DHT22;21924;51.934;7.414;2023-08-01T07:41:20;17.60;99.90
35804;DHT22;21924;51.934;7.414;2023-08-01T07:44:04;17.60;99.90
35804;DHT22;21924;51.934;7.414;2023-08-01T07:46:48;17.40;99.90
35804;DHT22;21924;51.934;7.414;2023-08-01T07:49:33;17.20;99.90
35804;DHT22;21924;51.934;7.414;2023-08-01T07:52:17;17.20;99.90
35804;DHT22;21924;51.934;7.414;2023-08-01T07:55:03;17.40;99.90
35804;DHT22;21924;51.934;7.414;2023-08-01T07:57:48;17.50;99.90
35804;DHT22;21924;51.934;7.414;2023-08-01T08:00:35;17.70;99.90
35804;DHT22;21924;51.934;7.414;2023-08-01T08:03:19;17.90;99.90
35804;DHT22;21924;51.934;7.414;2023-08-01T08:06:08;18.10;99.90
35804;DHT22;21924;51.934;7.414;2023-08-01T08:08:53;18.30;99.90
35804;DHT22;21924;51.934;7.414;2023-08-01T08:11:37;18.30;99.90
35804;DHT22;21924;51.934;7.414;2023-08-01T08:14:21;18.10;99.90
35804;DHT22;21924;51.934;7.414;2023-08-01T08:17:07;18.20;99.90
35804;DHT22;21924;51.934;7.414;2023-08-01T08:19:52;18.10;99.90
35804;DHT22;21924;51.934;7.414;2023-08-01T08:22:37;17.80;99.90
35804;DHT22;21924;51.934;7.414;2023-08-01T08:25:21;17.70;99.90
35804;DHT22;21924;51.934;7.414;2023-08-01T08:28:06;17.70;99.90
35804;DHT22;21924;51.934;7.414;2023-08-01T08:30:50;17.90;99.90
35804;DHT22;21924;51.934;7.414;2023-08-01T08:33:34;18.00;99.90
35804;DHT22;21924;51.934;7.414;2023-08-01T08:36:18;18.00;99.90
35804;DHT22;21924;51.934;7.414;2023-08-01T08:39:03;18.20;99.90
35804;DHT22;21924;51.934;7.414;2023-08-01T08:41:49;18.40;99.90
35804;DHT22;21924;51.934;7.414;2023-08-01T08:44:57;18.50;99.90
35804;DHT22;21924;51.934;7.414;2023-08-01T08:47:42;18.40;99.90
35804;DHT22;21924;51.934;7.414;2023-08-01T08:50:30;18.60;99.90
35804;DHT22;21924;51.934;7.414;2023-08-01T08:53:16;18.80;99.90
35804;DHT22;21924;51.934;7.414;2023-08-01T08:56:11;18.70;99.90
35804;DHT22;21924;51.934;7.414;2023-08-01T08:58:57;18.60;99.90
35804;DHT22;21924;51.934;7.414;2023-08-01T09:01:51;18.90;99.90
35804;DHT22;21924;51.934;7.414;2023-08-01T09:04:42;18.90;99.90
35804;DHT22;21924;51.934;7.414;2023-08-01T09:07:33;18.80;99.90
35804;DHT22;21924;51.934;7.414;2023-08-01T09:10:21;19.00;99.90
35804;DHT22;21924;51.934;7.414;2023-08-01T09:13:07;19.20;99.90
35804;DHT22;21924;51.934;7.414;2023-08-01T09:15:53;19.20;99.90
35804;DHT22;21924;51.934;7.414;2023-08-01T09:18:52;18.80;99.90
35804;DHT22;21924;51.934;7.414;2023-08-01T09:21:36;18.70;99.90
35804;DHT22;21924;51.934;7.414;2023-08-01T09:24:23;18.50;99.90
35804;DHT22;21924;51.934;7.414;2023-08-01T09:27:08;18.30;99.90
35804;DHT22;21924;51.934;7.414;2023-08-01T09:29:52;18.40;99.90
35804;DHT22;21924;51.934;7.414;2023-08-01T09:32:39;18.50;99.90
35804;DHT22;21924;51.934;7.414;2023-08-01T09:35:25;18.80;99.90
35804;DHT22;21924;51.934;7.414;2023-08-01T09:38:14;19.10;99.90
35804;DHT22;21924;51.934;7.414;2023-08-01T09:40:59;19.00;99.90
35804;DHT22;21924;51.934;7.414;2023-08-01T09:43:45;19.10;99.90
35804;DHT22;21924;51.934;7.414;2023-08-01T09:46:29;19.20;99.90
35804;DHT22;21924;51.934;7.414;2023-08-01T09:49:14;19.40;99.90
35804;DHT22;21924;51.934;7.414;2023-08-01T09:51:59;19.50;99.90
35804;DHT22;21924;51.934;7.414;2023-08-01T09:54:47;19.60;99.90
35804;DHT22;21924;51.934;7.414;2023-08-01T09:57:34;19.50;99.90
35804;DHT22;21924;51.934;7.414;2023-08-01T10:00:51;19.40;99.90
35804;DHT22;21924;51.934;7.414;2023-08-01T10:03:35;19.40;99.90
35804;DHT22;21924;51.934;7.414;2023-08-01T10:06:22;19.40;99.90
35804;DHT22;21924;51.934;7.414;2023-08-01T10:09:10;19.10;99.90
35804;DHT22;21924;51.934;7.414;2023-08-01T10:11:57;18.80;99.90
35804;DHT22;21924;51.934;7.414;2023-08-01T10:14:42;18.70;99.90
35804;DHT22;21924;51.934;7.414;2023-08-01T10:17:28;18.50;99.90
35804;DHT22;21924;51.934;7.414;2023-08-01T10:20:17;18.30;99.90
35804;DHT22;21924;51.934;7.414;2023-08-01T10:23:09;18.00;99.90
35804;DHT22;21924;51.934;7.414;2023-08-01T10:25:54;17.80;99.90
35804;DHT22;21924;51.934;7.414;2023-08-01T10:28:51;17.90;99.90
35804;DHT22;21924;51.934;7.414;2023-08-01T10:31:36;18.30;99.90
35804;DHT22;21924;51.934;7.414;2023-08-01T10:34:23;18.50;99.90
35804;DHT22;21924;51.934;7.414;2023-08-01T10:37:13;18.50;99.90
35804;DHT22;21924;51.934;7.414;2023-08-01T10:39:59;18.50;99.90
35804;DHT22;21924;51.934;7.414;2023-08-01T10:42:45;18.70;99.90
35804;DHT22;21924;51.934;7.414;2023-08-01T10:45:34;18.70;99.90
35804;DHT22;21924;51.934;7.414;2023-08-01T10:48:23;18.70;99.90
35804;DHT22;21924;51.934;7.414;2023-08-01T10:51:10;18.90;99.90
35804;DHT22;21924;51.934;7.414;2023-08-01T10:53:55;19.30;99.90
35804;DHT22;21924;51.934;7.414;2023-08-01T10:56:45;19.80;99.90
35804;DHT22;21924;51.934;7.414;2023-08-01T10:59:31;20.00;99.90
35804;DHT22;21924;51.934;7.414;2023-08-01T11:02:27;20.50;99.90
35804;DHT22;21924;51.934;7.414;2023-08-01T11:05:11;20.70;99.90
35804;DHT22;21924;51.934;7.414;2023-08-01T11:08:14;20.60;99.90
35804;DHT22;21924;51.934;7.414;2023-08-01T11:11:11;20.60;99.90
35804;DHT22;21924;51.934;7.414;2023-08-01T11:14:14;20.40;99.90
35804;DHT22;21924;51.934;7.414;2023-08-01T11:17:03;20.10;99.90
35804;DHT22;21924;51.934;7.414;2023-08-01T11:19:49;19.90;99.90
35804;DHT22;21924;51.934;7.414;2023-08-01T11:22:33;19.90;99.90
35804;DHT22;21924;51.934;7.414;2023-08-01T11:25:38;19.80;99.90
35804;DHT22;21924;51.934;7.414;2023-08-01T11:28:45;19.60;99.90
35804;DHT22;21924;51.934;7.414;2023-08-01T11:31:35;19.30;99.90
35804;DHT22;21924;51.934;7.414;2023-08-01T11:34:19;19.30;99.90
35804;DHT22;21924;51.934;7.414;2023-08-01T11:37:11;19.40;99.90
35804;DHT22;21924;51.934;7.414;2023-08-01T11:39:55;19.40;99.90
35804;DHT22;21924;51.934;7.414;2023-08-01T11:42:41;19.30;99.90
35804;DHT22;21924;51.934;7.414;2023-08-01T11:45:30;19.10;99.90
35804;DHT22;21924;51.934;7.414;2023-08-01T11:48:38;18.90;99.90
35804;DHT22;21924;51.934;7.414;2023-08-01T11:51:39;18.70;99.90
35804;DHT22;21924;51.934;7.414;2023-08-01T11:54:27;18.70;99.90
35804;DHT22;21924;51.934;7.414;2023-08-01T11:57:11;18.50;99.90
35804;DHT22;21924;51.934;7.414;2023-08-01T12:03:59;18.40;99.90
35804;DHT22;21924;51.934;7.414;2023-08-01T12:07:13;18.50;99.90
35804;DHT22;21924;51.934;7.414;2023-08-01T12:10:00;18.60;99.90
35804;DHT22;21924;51.934;7.414;2023-08-01T12:12:45;19.30;99.90
35804;DHT22;21924;51.934;7.414;2023-08-01T12:15:40;19.50;99.90
35804;DHT22;21924;51.934;7.414;2023-08-01T12:18:42;20.20;99.90
35804;DHT22;21924;51.934;7.414;2023-08-01T12:21:43;20.70;99.90
35804;DHT22;21924;51.934;7.414;2023-08-01T12:24:41;21.50;99.90
35804;DHT22;21924;51.934;7.414;2023-08-01T12:27:29;21.90;99.90
35804;DHT22;21924;51.934;7.414;2023-08-01T12:30:16;21.90;99.90
35804;DHT22;21924;51.934;7.414;2023-08-01T12:33:02;22.40;99.90
35804;DHT22;21924;51.934;7.414;2023-08-01T12:35:46;22.80;99.90
35804;DHT22;21924;51.934;7.414;2023-08-01T12:38:35;23.20;99.90
35804;DHT22;21924;51.934;7.414;2023-08-01T12:41:19;23.00;99.90
35804;DHT22;21924;51.934;7.414;2023-08-01T12:44:22;23.10;99.90
35804;DHT22;21924;51.934;7.414;2023-08-01T12:47:06;23.20;99.90
35804;DHT22;21924;51.934;7.414;2023-08-01T12:50:20;23.30;99.90
35804;DHT22;21924;51.934;7.414;2023-08-01T12:53:04;23.20;99.90
35804;DHT22;21924;51.934;7.414;2023-08-01T12:55:58;23.60;99.90
35804;DHT22;21924;51.934;7.414;2023-08-01T12:58:44;23.50;99.90
35804;DHT22;21924;51.934;7.414;2023-08-01T13:01:42;23.30;99.90
35804;DHT22;21924;51.934;7.414;2023-08-01T13:04:28;23.20;99.90
35804;DHT22;21924;51.934;7.414;2023-08-01T13:07:18;23.00;99.90
35804;DHT22;21924;51.934;7.414;2023-08-01T13:10:08;23.20;99.90
35804;DHT22;21924;51.934;7.414;2023-08-01T13:12:53;23.40;99.90
35804;DHT22;21924;51.934;7.414;2023-08-01T13:15:43;23.50;99.90
35804;DHT22;21924;51.934;7.414;2023-08-01T13:18:28;23.70;99.90
35804;DHT22;21924;51.934;7.414;2023-08-01T13:21:48;23.60;99.90
35804;DHT22;21924;51.934;7.414;2023-08-01T13:24:53;23.80;99.90
35804;DHT22;21924;51.934;7.414;2023-08-01T13:27:37;23.90;99.90
35804;DHT22;21924;51.934;7.414;2023-08-01T13:30:54;23.80;99.90
35804;DHT22;21924;51.934;7.414;2023-08-01T13:33:43;23.80;99.90
35804;DHT22;21924;51.934;7.414;2023-08-01T13:36:49;24.10;99.90
35804;DHT22;21924;51.934;7.414;2023-08-01T13:39:51;24.20;99.90
35804;DHT22;21924;51.934;7.414;2023-08-01T13:42:51;24.10;99.90
35804;DHT22;21924;51.934;7.414;2023-08-01T13:45:53;24.40;99.90
35804;DHT22;21924;51.934;7.414;2023-08-01T13:48:39;25.20;99.90
35804;DHT22;21924;51.934;7.414;2023-08-01T13:51:43;26.10;99.90
35804;DHT22;21924;51.934;7.414;2023-08-01T13:55:02;25.80;99.90
35804;DHT22;21924;51.934;7.414;2023-08-01T13:58:26;26.00;99.90
35804;DHT22;21924;51.934;7.414;2023-08-01T14:01:11;25.90;99.90
35804;DHT22;21924;51.934;7.414;2023-08-01T14:03:56;25.50;99.90
35804;DHT22;21924;51.934;7.414;2023-08-01T14:06:41;24.80;99.90
35804;DHT22;21924;51.934;7.414;2023-08-01T14:09:27;24.00;99.90
35804;DHT22;21924;51.934;7.414;2023-08-01T14:12:13;23.50;99.90
35804;DHT22;21924;51.934;7.414;2023-08-01T14:14:57;22.90;99.90
35804;DHT22;21924;51.934;7.414;2023-08-01T14:17:43;22.20;99.90
35804;DHT22;21924;51.934;7.414;2023-08-01T14:20:27;21.50;99.90
35804;DHT22;21924;51.934;7.414;2023-08-01T14:23:12;20.90;99.90
35804;DHT22;21924;51.934;7.414;2023-08-01T14:25:58;20.40;99.90
35804;DHT22;21924;51.934;7.414;2023-08-01T14:28:42;20.10;99.90
35804;DHT22;21924;51.934;7.414;2023-08-01T14:31:26;19.90;99.90
35804;DHT22;21924;51.934;7.414;2023-08-01T14:34:11;19.90;99.90
35804;DHT22;21924;51.934;7.414;2023-08-01T14:36:56;19.80;99.90
35804;DHT22;21924;51.934;7.414;2023-08-01T14:39:41;19.90;99.90
35804;DHT22;21924;51.934;7.414;2023-08-01T14:42:25;19.80;99.90
35804;DHT22;21924;51.934;7.414;2023-08-01T14:45:09;19.70;99.90
35804;DHT22;21924;51.934;7.414;2023-08-01T14:47:55;19.80;99.90
35804;DHT22;21924;51.934;7.414;2023-08-01T14:50:40;19.80;99.90
35804;DHT22;21924;51.934;7.414;2023-08-01T14:53:25;19.90;99.90
35804;DHT22;21924;51.934;7.414;2023-08-01T14:56:10;20.10;99.90
35804;DHT22;21924;51.934;7.414;2023-08-01T14:58:55;20.40;99.90
35804;DHT22;21924;51.934;7.414;2023-08-01T15:01:43;21.00;99.90
35804;DHT22;21924;51.934;7.414;2023-08-01T15:04:29;22.10;99.90
35804;DHT22;21924;51.934;7.414;2023-08-01T15:07:13;23.70;99.90
35804;DHT22;21924;51.934;7.414;2023-08-01T15:09:57;25.30;99.90
35804;DHT22;21924;51.934;7.414;2023-08-01T15:12:42;25.30;99.90
35804;DHT22;21924;51.934;7.414;2023-08-01T15:15:27;25.60;99.90
35804;DHT22;21924;51.934;7.414;2023-08-01T15:18:11;26.00;99.90
35804;DHT22;21924;51.934;7.414;2023-08-01T15:20:57;26.20;99.90
35804;DHT22;21924;51.934;7.414;2023-08-01T15:23:41;25.70;99.90
35804;DHT22;21924;51.934;7.414;2023-08-01T15:26:26;25.00;99.90
35804;DHT22;21924;51.934;7.414;2023-08-01T15:29:11;23.70;99.90
35804;DHT22;21924;51.934;7.414;2023-08-01T15:31:57;23.30;99.90
35804;DHT22;21924;51.934;7.414;2023-08-01T15:34:50;23.20;99.90
35804;DHT22;21924;51.934;7.414;2023-08-01T15:37:34;22.70;99.90
35804;DHT22;21924;51.934;7.414;2023-08-01T15:40:20;22.10;99.90
35804;DHT22;21924;51.934;7.414;2023-08-01T15:43:04;21.70;99.90
35804;DHT22;21924;51.934;7.414;2023-08-01T15:45:51;21.50;99.90
35804;DHT22;21924;51.934;7.414;2023-08-01T15:48:36;21.30;99.90
35804;DHT22;21924;51.934;7.414;2023-08-01T15:51:21;21.00;99.90
35804;DHT22;21924;51.934;7.414;2023-08-01T15:54:05;20.80;99.90
35804;DHT22;21924;51.934;7.414;2023-08-01T15:56:50;20.50;99.90
35804;DHT22;21924;51.934;7.414;2023-08-01T15:59:34;20.40;99.90
35804;DHT22;21924;51.934;7.414;2023-08-01T16:02:18;20.30;99.90
35804;DHT22;21924;51.934;7.414;2023-08-01T16:05:06;20.30;99.90
35804;DHT22;21924;51.934;7.414;2023-08-01T16:07:51;20.30;99.90
35804;DHT22;21924;51.934;7.414;2023-08-01T16:10:36;20.20;99.90
35804;DHT22;21924;51.934;7.414;2023-08-01T16:13:20;20.10;99.90
35804;DHT22;21924;51.934;7.414;2023-08-01T16:16:05;20.40;99.90
35804;DHT22;21924;51.934;7.414;2023-08-01T16:18:50;20.50;99.90
35804;DHT22;21924;51.934;7.414;2023-08-01T16:21:35;20.60;99.90
35804;DHT22;21924;51.934;7.414;2023-08-01T16:24:20;20.40;99.90
35804;DHT22;21924;51.934;7.414;2023-08-01T16:27:06;20.50;99.90
35804;DHT22;21924;51.934;7.414;2023-08-01T16:29:52;20.70;99.90
35804;DHT22;21924;51.934;7.414;2023-08-01T16:32:36;20.60;99.90
35804;DHT22;21924;51.934;7.414;2023-08-01T16:35:22;20.80;99.90
35804;DHT22;21924;51.934;7.414;2023-08-01T16:38:06;20.90;99.90
35804;DHT22;21924;51.934;7.414;2023-08-01T16:40:50;21.00;99.90
35804;DHT22;21924;51.934;7.414;2023-08-01T16:43:34;21.00;99.90
35804;DHT22;21924;51.934;7.414;2023-08-01T16:46:19;21.00;99.90
35804;DHT22;21924;51.934;7.414;2023-08-01T16:49:03;20.80;99.90
35804;DHT22;21924;51.934;7.414;2023-08-01T16:51:48;20.60;99.90
35804;DHT22;21924;51.934;7.414;2023-08-01T16:54:32;20.50;99.90
35804;DHT22;21924;51.934;7.414;2023-08-01T16:57:16;20.40;99.90
35804;DHT22;21924;51.934;7.414;2023-08-01T17:00:00;20.20;99.90
35804;DHT22;21924;51.934;7.414;2023-08-01T17:02:44;20.20;99.90
35804;DHT22;21924;51.934;7.414;2023-08-01T17:05:30;20.10;99.90
35804;DHT22;21924;51.934;7.414;2023-08-01T17:08:15;20.10;99.90
35804;DHT22;21924;51.934;7.414;2023-08-01T17:11:07;20.00;99.90
35804;DHT22;21924;51.934;7.414;2023-08-01T17:14:02;19.90;99.90
35804;DHT22;21924;51.934;7.414;2023-08-01T17:16:49;19.90;99.90
35804;DHT22;21924;51.934;7.414;2023-08-01T17:19:33;19.80;99.90
35804;DHT22;21924;51.934;7.414;2023-08-01T17:22:18;19.80;99.90
35804;DHT22;21924;51.934;7.414;2023-08-01T17:25:16;19.80;99.90
35804;DHT22;21924;51.934;7.414;2023-08-01T17:28:16;19.70;99.90
35804;DHT22;21924;51.934;7.414;2023-08-01T17:31:17;19.60;99.90
35804;DHT22;21924;51.934;7.414;2023-08-01T17:34:02;19.60;99.90
35804;DHT22;21924;51.934;7.414;2023-08-01T17:36:56;19.60;99.90
35804;DHT22;21924;51.934;7.414;2023-08-01T17:39:51;19.50;99.90
35804;DHT22;21924;51.934;7.414;2023-08-01T17:42:36;19.30;99.90
35804;DHT22;21924;51.934;7.414;2023-08-01T17:45:24;19.10;99.90
35804;DHT22;21924;51.934;7.414;2023-08-01T17:48:18;19.00;99.90
35804;DHT22;21924;51.934;7.414;2023-08-01T17:51:22;18.80;99.90
35804;DHT22;21924;51.934;7.414;2023-08-01T17:54:42;18.80;99.90
35804;DHT22;21924;51.934;7.414;2023-08-01T17:57:37;18.60;99.90
35804;DHT22;21924;51.934;7.414;2023-08-01T18:00:21;18.80;99.90
35804;DHT22;21924;51.934;7.414;2023-08-01T18:03:06;18.60;99.90
35804;DHT22;21924;51.934;7.414;2023-08-01T18:05:50;18.60;99.90
35804;DHT22;21924;51.934;7.414;2023-08-01T18:08:53;18.50;99.90
35804;DHT22;21924;51.934;7.414;2023-08-01T18:11:37;18.50;99.90
35804;DHT22;21924;51.934;7.414;2023-08-01T18:14:23;18.40;99.90
35804;DHT22;21924;51.934;7.414;2023-08-01T18:17:09;18.30;99.90
35804;DHT22;21924;51.934;7.414;2023-08-01T18:19:53;18.20;99.90
35804;DHT22;21924;51.934;7.414;2023-08-01T18:22:37;18.20;99.90
35804;DHT22;21924;51.934;7.414;2023-08-01T18:25:22;18.10;99.90
35804;DHT22;21924;51.934;7.414;2023-08-01T18:28:06;18.10;99.90